createdAt,value
2018-09-23T00:01:14.174Z,12.50
2018-09-23T00:06:22.453Z,12.50
2018-09-23T00:11:30.746Z,12.50
2018-09-23T00:16:39.066Z,12.50
2018-09-23T00:21:47.450Z,12.50
2018-09-23T00:26:55.742Z,12.50
2018-09-23T00:32:04.089Z,12.50
2018-09-23T00:37:12.474Z,12.40
2018-09-23T00:42:20.830Z,12.40
2018-09-23T00:47:29.111Z,12.50
2018-09-23T00:52:37.447Z,12.50
2018-09-23T00:57:45.789Z,12.60
2018-09-23T01:02:54.081Z,12.50
2018-09-23T01:08:02.485Z,12.50
2018-09-23T01:13:10.917Z,12.50
2018-09-23T01:18:19.230Z,12.40
2018-09-23T01:23:27.530Z,12.30
2018-09-23T01:28:36.130Z,12.20
2018-09-23T01:33:44.482Z,12.10
2018-09-23T01:38:52.862Z,12.00
2018-09-23T01:44:01.226Z,12.00
2018-09-23T01:49:09.521Z,12.00
2018-09-23T01:54:17.857Z,11.90
2018-09-23T01:59:26.214Z,11.90
2018-09-23T02:04:34.803Z,11.80
2018-09-23T02:09:43.134Z,11.80
2018-09-23T02:14:51.485Z,11.90
2018-09-23T02:19:59.814Z,11.80
2018-09-23T02:25:08.266Z,11.90
2018-09-23T02:30:16.668Z,11.90
2018-09-23T02:35:25.014Z,11.90
2018-09-23T02:40:33.322Z,11.80
2018-09-23T02:45:41.654Z,11.80
2018-09-23T02:50:49.905Z,11.70
2018-09-23T02:55:58.249Z,11.80
2018-09-23T03:01:07.450Z,11.80
2018-09-23T03:06:15.720Z,11.70
2018-09-23T03:11:23.973Z,11.70
2018-09-23T03:16:32.353Z,11.70
2018-09-23T03:21:40.670Z,11.70
2018-09-23T03:26:49.017Z,11.70
2018-09-23T03:31:57.300Z,11.70
2018-09-23T03:37:05.582Z,11.80
2018-09-23T03:42:14.226Z,11.90
2018-09-23T03:47:22.490Z,12.00
2018-09-23T03:52:30.866Z,11.90
2018-09-23T03:57:39.161Z,11.90
2018-09-23T04:02:47.498Z,12.00
2018-09-23T04:07:55.898Z,12.00
2018-09-23T04:13:04.165Z,12.10
2018-09-23T04:18:12.415Z,12.10
2018-09-23T04:23:20.837Z,12.10
2018-09-23T04:28:29.088Z,12.10
2018-09-23T04:33:37.445Z,12.10
2018-09-23T04:38:45.645Z,12.20
2018-09-23T04:43:54.053Z,12.20
2018-09-23T04:49:02.669Z,12.20
2018-09-23T04:54:11.122Z,12.30
2018-09-23T04:59:19.433Z,12.40
2018-09-23T05:04:27.881Z,12.50
2018-09-23T05:09:36.230Z,12.50
2018-09-23T05:14:44.635Z,12.50
2018-09-23T05:19:53.006Z,12.60
2018-09-23T05:25:01.409Z,12.70
2018-09-23T05:30:09.755Z,12.70
2018-09-23T05:35:18.113Z,12.80
2018-09-23T05:40:26.414Z,12.80
2018-09-23T05:45:34.717Z,12.90
2018-09-23T05:50:43.074Z,12.90
2018-09-23T05:55:51.446Z,13.00
2018-09-23T06:00:59.846Z,13.10
2018-09-23T06:06:08.157Z,13.20
2018-09-23T06:11:16.477Z,13.30
2018-09-23T06:16:24.736Z,13.30
2018-09-23T06:21:33.037Z,13.30
2018-09-23T06:26:41.444Z,13.40
2018-09-23T06:31:49.822Z,13.50
2018-09-23T06:36:58.227Z,13.50
2018-09-23T06:42:06.507Z,13.70
2018-09-23T06:47:14.813Z,13.80
2018-09-23T06:52:23.214Z,13.90
2018-09-23T06:57:31.741Z,13.90
2018-09-23T07:02:40.194Z,13.90
2018-09-23T07:07:48.545Z,14.00
2018-09-23T07:12:56.758Z,14.20
2018-09-23T07:18:05.167Z,14.20
2018-09-23T07:23:13.518Z,14.40
2018-09-23T07:28:22.124Z,14.60
2018-09-23T07:33:30.547Z,14.70
2018-09-23T07:38:38.907Z,14.90
2018-09-23T07:43:47.126Z,15.00
2018-09-23T07:48:55.368Z,15.00
2018-09-23T07:54:03.709Z,15.10
2018-09-23T07:59:11.994Z,15.40
2018-09-23T08:04:20.321Z,15.50
2018-09-23T08:09:28.530Z,15.60
2018-09-23T08:14:37.439Z,15.70
2018-09-23T08:19:45.455Z,15.80
2018-09-23T08:24:53.638Z,15.90
2018-09-23T08:30:01.982Z,16.10
2018-09-23T08:35:10.270Z,16.20
2018-09-23T08:40:18.639Z,16.40
2018-09-23T08:45:26.946Z,16.40
2018-09-23T08:50:35.218Z,16.60
2018-09-23T08:55:43.594Z,16.70
2018-09-23T09:00:51.891Z,17.00
2018-09-23T09:06:00.201Z,17.10
2018-09-23T09:11:08.667Z,17.60
2018-09-23T09:16:16.993Z,17.70
2018-09-23T09:21:25.319Z,17.70
2018-09-23T09:26:33.608Z,17.80
2018-09-23T09:31:42.126Z,17.80
2018-09-23T09:36:50.430Z,17.80
2018-09-23T09:41:58.807Z,18.00
2018-09-23T09:47:07.215Z,18.10
2018-09-23T09:52:15.753Z,18.30
2018-09-23T09:57:23.969Z,18.40
2018-09-23T10:02:32.244Z,18.60
2018-09-23T10:07:40.671Z,18.80
2018-09-23T10:12:49.053Z,18.90
2018-09-23T10:17:57.382Z,18.90
2018-09-23T10:23:05.719Z,18.90
2018-09-23T10:28:14.082Z,19.00
2018-09-23T10:33:22.590Z,19.10
2018-09-23T10:38:31.060Z,19.20
2018-09-23T10:43:39.386Z,19.20
2018-09-23T10:48:47.682Z,19.40
2018-09-23T10:53:56.053Z,19.30
2018-09-23T10:59:04.357Z,19.40
2018-09-23T11:04:12.819Z,19.40
2018-09-23T11:09:21.037Z,19.40
2018-09-23T11:14:29.346Z,19.40
2018-09-23T11:19:37.650Z,19.40
2018-09-23T11:24:45.988Z,19.50
2018-09-23T11:29:54.246Z,19.60
2018-09-23T11:35:02.677Z,19.60
2018-09-23T11:40:10.994Z,19.80
2018-09-23T11:45:19.356Z,19.90
2018-09-23T11:50:27.953Z,20.30
2018-09-23T11:55:36.301Z,20.70
2018-09-23T12:00:44.617Z,21.00
2018-09-23T12:05:52.862Z,21.00
2018-09-23T12:11:01.359Z,21.30
2018-09-23T12:16:09.631Z,21.40
2018-09-23T12:21:18.171Z,21.40
2018-09-23T12:26:26.382Z,21.80
2018-09-23T12:31:34.653Z,22.10
2018-09-23T12:36:43.098Z,22.10
2018-09-23T12:41:51.477Z,22.60
2018-09-23T12:46:59.835Z,22.40
2018-09-23T12:52:08.222Z,22.20
2018-09-23T12:57:16.603Z,22.00
2018-09-23T13:02:24.928Z,21.90
2018-09-23T13:07:33.199Z,21.90
2018-09-23T13:12:42.446Z,21.90
2018-09-23T13:17:50.705Z,21.90
2018-09-23T13:22:59.094Z,22.00
2018-09-23T13:28:07.403Z,22.20
2018-09-23T13:33:15.809Z,22.20
2018-09-23T13:38:24.149Z,22.10
2018-09-23T13:43:32.489Z,22.10
2018-09-23T13:48:40.863Z,22.00
2018-09-23T13:53:49.191Z,22.00
2018-09-23T13:58:57.520Z,21.90
2018-09-23T14:04:05.880Z,22.00
2018-09-23T14:09:14.195Z,21.80
2018-09-23T14:14:22.518Z,21.80
2018-09-23T14:19:30.738Z,21.90
2018-09-23T14:24:39.019Z,22.10
2018-09-23T14:29:47.314Z,22.00
2018-09-23T14:34:55.649Z,22.00
2018-09-23T14:40:04.225Z,22.00
2018-09-23T14:45:12.508Z,21.90
2018-09-23T14:50:20.862Z,21.80
2018-09-23T14:55:29.262Z,21.80
2018-09-23T15:00:37.647Z,18.40
2018-09-23T15:05:45.930Z,15.70
2018-09-23T15:10:54.238Z,15.70
2018-09-23T15:16:02.532Z,15.90
2018-09-23T15:21:10.914Z,15.90
2018-09-23T15:26:19.329Z,16.20
2018-09-23T15:31:27.721Z,16.30
2018-09-23T15:36:36.001Z,16.30
2018-09-23T15:41:44.305Z,16.40
2018-09-23T15:46:52.654Z,16.50
2018-09-23T15:52:01.018Z,16.10
2018-09-23T15:57:09.322Z,15.90
2018-09-23T16:02:17.638Z,15.50
2018-09-23T16:07:25.965Z,15.50
2018-09-23T16:12:34.286Z,15.10
2018-09-23T16:17:42.621Z,14.90
2018-09-23T16:22:50.943Z,14.70
2018-09-23T16:28:00.398Z,14.40
2018-09-23T16:33:08.813Z,14.50
2018-09-23T16:38:17.169Z,14.40
2018-09-23T16:43:25.489Z,14.30
2018-09-23T16:48:33.951Z,14.30
2018-09-23T16:53:42.273Z,14.20
2018-09-23T16:58:50.601Z,14.20
2018-09-23T17:03:58.944Z,14.10
2018-09-23T17:09:08.254Z,14.10
2018-09-23T17:14:16.466Z,14.00
2018-09-23T17:19:25.369Z,13.80
2018-09-23T17:24:33.677Z,13.70
2018-09-23T17:29:42.091Z,13.40
2018-09-23T17:34:50.595Z,13.30
2018-09-23T17:39:58.834Z,13.20
2018-09-23T17:45:07.140Z,13.20
2018-09-23T17:50:16.562Z,13.10
2018-09-23T17:55:24.963Z,13.10
2018-09-23T18:00:33.421Z,13.10
2018-09-23T18:05:42.266Z,13.00
2018-09-23T18:10:50.688Z,12.80
2018-09-23T18:15:59.049Z,12.80
2018-09-23T18:21:07.395Z,12.60
2018-09-23T18:26:15.697Z,12.60
2018-09-23T18:31:28.374Z,12.50
2018-09-23T18:36:36.789Z,12.50
2018-09-23T18:41:45.077Z,12.40
2018-09-23T18:46:53.502Z,12.40
2018-09-23T18:52:01.813Z,12.40
2018-09-23T18:57:10.241Z,12.40
2018-09-23T19:02:18.774Z,12.40
2018-09-23T19:07:27.143Z,12.30
2018-09-23T19:12:35.422Z,12.30
2018-09-23T19:17:43.738Z,12.20
2018-09-23T19:22:57.965Z,12.20
2018-09-23T19:28:06.313Z,12.00
2018-09-23T19:33:14.609Z,12.00
2018-09-23T19:38:22.934Z,12.00
2018-09-23T19:43:31.379Z,11.90
2018-09-23T19:48:39.706Z,11.80
2018-09-23T19:53:48.097Z,11.80
2018-09-23T19:58:56.452Z,11.70
2018-09-23T20:04:04.705Z,11.70
2018-09-23T20:09:13.050Z,11.60
2018-09-23T20:14:21.454Z,11.60
2018-09-23T20:19:29.778Z,11.50
2018-09-23T20:24:38.094Z,11.50
2018-09-23T20:29:46.398Z,11.50
2018-09-23T20:34:54.737Z,11.60
2018-09-23T20:40:03.197Z,11.40
2018-09-23T20:45:11.442Z,11.30
2018-09-23T20:50:19.702Z,11.30
2018-09-23T20:55:28.902Z,11.30
2018-09-23T21:00:37.250Z,11.20
2018-09-23T21:05:45.665Z,11.20
2018-09-23T21:10:54.010Z,11.10
2018-09-23T21:16:02.515Z,11.10
2018-09-23T21:21:10.945Z,11.10
2018-09-23T21:26:19.293Z,11.00
2018-09-23T21:31:27.738Z,10.80
2018-09-23T21:36:36.090Z,10.80
2018-09-23T21:41:44.469Z,10.70
2018-09-23T21:46:52.866Z,10.60
2018-09-23T21:52:01.332Z,10.60
2018-09-23T21:57:09.698Z,10.70
2018-09-23T22:02:17.998Z,10.70
2018-09-23T22:07:26.329Z,10.80
2018-09-23T22:12:34.741Z,10.90
2018-09-23T22:17:42.942Z,10.90
2018-09-23T22:22:51.323Z,10.80
2018-09-23T22:27:59.777Z,10.80
2018-09-23T22:33:08.131Z,10.70
2018-09-23T22:38:16.418Z,10.60
2018-09-23T22:43:24.742Z,10.60
2018-09-23T22:48:33.177Z,10.50
2018-09-23T22:53:41.482Z,10.50
2018-09-23T22:58:49.727Z,10.50
2018-09-23T23:03:57.978Z,10.50
2018-09-23T23:09:07.609Z,10.50
2018-09-23T23:14:15.764Z,10.40
2018-09-23T23:19:24.087Z,10.40
2018-09-23T23:24:32.590Z,10.40
2018-09-23T23:29:40.761Z,10.30
2018-09-23T23:34:49.089Z,10.40
2018-09-23T23:39:57.543Z,10.50
2018-09-23T23:45:05.921Z,10.50
2018-09-23T23:50:14.402Z,10.50
2018-09-23T23:55:22.778Z,10.50
